...

 METAR AND TAF INFORMATION
METAR FOR LOWI
ADDS - METARS form results

(2130 UTC 19 May 2019)
Data provider http://aviationweather.gov/metar/data/
 
METAR text: LOWI 192120Z AUTO VRB01KT 9999 FEW050 BKN090 12/10 Q1003
Conditions at: LOWI (INNSBRUCK AIRPOR, AT) observed 2120 UTC 19 May 2019
Temperature: 12.0°C (54°F)
Dewpoint: 10.0°C (50°F) [RH = 88%]
Pressure (altimeter): 29.62 inches Hg (1003.0 mb)
Winds: variable direction winds at 1 MPH (1 knots; 0.5 m/s)
Visibility: 6 or more miles (10+ km)
Ceiling: 9000 feet AGL
Clouds: few clouds at 5000 feet AGL
broken clouds at 9000 feet AGL
Weather: no significant weather observed at this time

METAR text: LOWI 192050Z VRB01KT 9999 FEW060 BKN110 12/11 Q1003 NOSIG
Conditions at: LOWI (INNSBRUCK AIRPOR, AT) observed 2050 UTC 19 May 2019
Temperature: 12.0°C (54°F)
Dewpoint: 11.0°C (52°F) [RH = 94%]
Pressure (altimeter): 29.62 inches Hg (1003.0 mb)
Winds: variable direction winds at 1 MPH (1 knots; 0.5 m/s)
Visibility: 6 or more miles (10+ km)
Ceiling: 11000 feet AGL
Clouds: few clouds at 6000 feet AGL
broken clouds at 11000 feet AGL
Weather: no significant weather observed at this time

Forecast for: LOWI (INNSBRUCK AIRPOR, AT)
Text: TAF LOWI 191715Z 1918/2018 05005KT 9999 SCT070 BKN120 TX15/1918Z TN11/2003Z
Forecast period: 1800 UTC 19 May 2019 to 0200 UTC 20 May 2019
Forecast type: FROM: standard forecast or significant change
Winds: from the NE (50 degrees) at 6 MPH (5 knots; 2.6 m/s)
Visibility: 6 or more miles 10+ km)
Ceiling: 12000 feet AGL
Clouds: scattered clouds at 7000 feet AGL
broken clouds at 12000 feet AGL
Weather: no significant weather forecast for this period
Text: BECMG 2002/2004 27007KT RA FEW010 BKN030
Forecast period: 0200 to 1800 UTC 20 May 2019
Forecast type: BECOMING: Conditions expected to become as follows by 0400 UTC 20 May 2019
Winds: from the W (270 degrees) at 8 MPH (7 knots; 3.6 m/s)
Visibility: 6 or more miles 10+ km)
Ceiling: 3000 feet AGL
Clouds: few clouds at 1000 feet AGL
broken clouds at 3000 feet AGL
Weather: RA  (moderate rain)
Text: TEMPO 2012/2018 28015KT SHRA
Forecast period: 1200 to 1800 UTC 20 May 2019
Forecast type: TEMPORARY: The following changes expected for less than half the time period
Winds: from the W (280 degrees) at 17 MPH (15 knots; 7.7 m/s)
Visibility: missing
Ceiling: unknown
Clouds: missing
Weather: SHRA  (rain showers)

 AIRPORT MAP

 RUNWAY INFORMATION
Runway 08 Runway length 6562 ft Runway width 148 ft
Runway elevation 1906 ft Runway displaced threshold 339 ft Runway heading 81
Runway 26 Runway length 6562 ft Runway width 148 ft
Runway elevation 1893 ft Runway displaced threshold 198 ft Runway heading 261

 AIRPORT FREQUENCIES
Type APP Name APP Frequency 119.275 MHZ
Type ATIS Name ATIS Frequency 126.025 MHZ
Type GND Crew Name Frequency 121.8 MHZ
Type GND Crew Name Frequency 121.9 MHZ
Type TWR Name TWR Frequency 120.1 MHZ

 AIRPORT NEAR NAVIGATION AIDS
Type NDB Name Innsbruck Frequency 420 KHZ
Type NDB Name Kuhtai Frequency 413 KHZ